CheckWX is a tool to help pilots better visualize weather data.  It is not intended as a substitute for an official pre-flight weather briefing.

17:21:17 UTC

PHOG TAF
Kahului Airport
Kahului, Hawaii, USA
PHOG 201121Z 2012/2112 05008KT P6SM VCSH SCT025 SCT050 FM202000 05014G22KT P6SM FEW025 SCT040 FM210500 05011KT P6SM FEW025 SCT040 AMD LTD TO VIS AND WIND TIL 201600

Nov-20@
12:00 UTC

Nov-20 @ 12:00 UTC

Nov-20@
20:00 UTC

Nov-20 @ 20:00 UTC

PHOG 201121Z 2012/2112 05008KT P6SM VCSH SCT025 SCT050
Wind
  • 050° at 8 KTS
Cloud Levels
  • Scattered at 2,500' AGL
  • Scattered at 5,000' AGL

Nov-20@
20:00 UTC

Nov-20 @ 20:00 UTC

Nov-21@
05:00 UTC

Nov-21 @ 05:00 UTC

FM202000 05014G22KT P6SM FEW025 SCT040

From

From Standard forecast or significant change

Wind
  • 050° at 14 KTS
  • {Gusting to 22 KTS
Cloud Levels
  • Few at 2,500' AGL
  • Scattered at 4,000' AGL

Nov-21@
05:00 UTC

Nov-21 @ 05:00 UTC

Nov-21@
12:00 UTC

Nov-21 @ 12:00 UTC

FM210500 05011KT P6SM FEW025 SCT040 AMD LTD TO VIS AND WIND TIL 201600

From

From Standard forecast or significant change

Wind
  • 050° at 11 KTS
Cloud Levels
  • Few at 2,500' AGL
  • Scattered at 4,000' AGL